Time;durP1;ratioP1;P1;durP2;ratioP2;P2;SDS_P1;SDS_P2;PMS_P1;PMS_P2;Temp;Humidity;BMP_temperature;BMP_pressure;BME280_temperature;BME280_humidity;BME280_pressure;Samples;Min_cycle;Max_cycle;Signal;HPM_P1;HPM_P2
2022/07/29 00:01:48;;;;;;;3.83;2.17;;;23.60;45.50;24.60;100704.00;;;;5069049;28;20168;-41
2022/07/29 00:04:13;;;;;;;3.87;2.20;;;23.60;45.60;24.60;100717.00;;;;5069089;28;20698;-41
2022/07/29 00:06:39;;;;;;;3.47;2.50;;;23.60;45.70;24.60;100718.00;;;;5068979;28;20174;-41
2022/07/29 00:09:05;;;;;;;4.90;2.50;;;23.60;45.60;24.60;100714.00;;;;5068666;28;20241;-40
2022/07/29 00:11:31;;;;;;;4.37;2.40;;;23.60;45.60;24.60;100710.00;;;;5051410;28;20230;-40
2022/07/29 00:13:57;;;;;;;2.97;2.30;;;23.60;45.60;24.60;100711.00;;;;5069214;28;20180;-41
2022/07/29 00:16:23;;;;;;;4.03;2.40;;;23.60;45.70;24.60;100708.00;;;;5069130;28;20181;-41
2022/07/29 00:18:48;;;;;;;2.30;2.10;;;23.50;45.60;24.60;100704.00;;;;5068653;28;20237;-39
2022/07/29 00:21:14;;;;;;;4.23;2.60;;;23.50;45.60;24.60;100699.00;;;;5068793;28;20183;-39
2022/07/29 00:23:40;;;;;;;5.30;2.33;;;23.60;45.70;24.60;100699.00;;;;5068623;28;20170;-39
2022/07/29 00:26:06;;;;;;;3.07;2.10;;;23.60;46.00;24.60;100696.00;;;;5069414;28;20174;-40
2022/07/29 00:28:31;;;;;;;3.37;2.17;;;23.60;45.80;24.60;100686.00;;;;5076327;28;20193;-39
2022/07/29 00:30:57;;;;;;;4.30;2.00;;;23.60;45.80;24.60;100687.00;;;;5068017;28;20639;-39
2022/07/29 00:33:23;;;;;;;4.83;2.20;;;23.60;45.80;24.60;100678.00;;;;5083431;28;20227;-41
2022/07/29 00:35:49;;;;;;;2.97;2.30;;;23.60;45.70;24.60;100679.00;;;;5068978;28;20170;-38
2022/07/29 00:38:17;;;;;;;2.97;2.17;;;23.60;45.80;24.60;100679.00;;;;5068432;28;20202;-40
2022/07/29 00:40:42;;;;;;;5.40;2.23;;;23.60;46.00;24.60;100675.00;;;;5050732;28;20197;-41
2022/07/29 00:43:08;;;;;;;4.23;2.20;;;23.60;45.90;24.70;100670.00;;;;5068796;28;20177;-39
2022/07/29 00:45:34;;;;;;;2.33;2.10;;;23.60;46.20;24.60;100670.00;;;;5068714;28;20551;-39
2022/07/29 00:48:00;;;;;;;2.93;2.20;;;23.60;46.10;24.60;100672.00;;;;5068456;28;20261;-41
2022/07/29 00:50:26;;;;;;;4.17;2.23;;;23.60;46.00;24.60;100663.00;;;;5068563;28;20181;-39
2022/07/29 00:52:51;;;;;;;3.97;2.33;;;23.60;46.00;24.60;100655.00;;;;5068674;28;20317;-40
2022/07/29 00:55:17;;;;;;;3.07;2.27;;;23.60;46.00;24.60;100648.00;;;;5068479;28;20519;-39
2022/07/29 00:57:44;;;;;;;3.40;2.20;;;23.60;46.10;24.60;100652.00;;;;5068280;28;20278;-40
2022/07/29 01:00:19;;;;;;;4.17;2.10;;;23.60;46.10;24.60;100655.00;;;;5068172;28;20199;-40
2022/07/29 01:02:48;;;;;;;3.23;2.13;;;23.60;46.00;24.60;100653.00;;;;5068796;28;20176;-40
2022/07/29 01:05:14;;;;;;;4.70;2.20;;;23.60;46.50;24.60;100647.00;;;;5068687;28;20177;-41
2022/07/29 01:07:40;;;;;;;14.63;2.50;;;23.60;46.40;24.60;100647.00;;;;5050513;28;20205;-39
2022/07/29 01:10:07;;;;;;;3.23;2.03;;;23.60;46.50;24.60;100655.00;;;;5050570;28;20240;-39
2022/07/29 01:12:33;;;;;;;4.13;2.20;;;23.60;46.70;24.60;100655.00;;;;5051225;28;20181;-42
2022/07/29 01:15:00;;;;;;;3.77;2.17;;;23.50;46.60;24.60;100657.00;;;;5051233;28;20174;-40
2022/07/29 01:17:41;;;;;;;3.47;2.23;;;23.50;46.80;24.50;100644.00;;;;5051223;28;20255;-40
2022/07/29 01:20:12;;;;;;;6.40;2.57;;;23.50;46.90;24.50;100641.00;;;;5068129;28;20250;-40
2022/07/29 01:23:02;;;;;;;4.57;2.10;;;23.40;46.90;24.50;100625.00;;;;5051213;28;20237;-39
2022/07/29 01:25:45;;;;;;;2.83;2.10;;;23.50;46.90;24.50;100638.00;;;;5057273;28;20193;-40
2022/07/29 01:28:47;;;;;;;3.17;2.20;;;23.50;47.00;24.50;100631.00;;;;5055032;28;20202;-41
2022/07/29 01:31:25;;;;;;;3.83;2.20;;;23.50;47.20;24.50;100635.00;;;;5051851;28;20719;-39
2022/07/29 01:33:59;;;;;;;3.90;2.40;;;23.60;46.90;24.50;100634.00;;;;5057422;28;20250;-39
2022/07/29 01:36:40;;;;;;;5.33;2.43;;;23.50;47.00;24.50;100619.00;;;;5071936;28;20173;-40
2022/07/29 01:39:12;;;;;;;3.67;2.33;;;23.50;47.30;24.50;100610.00;;;;5054940;28;20259;-40
2022/07/29 01:41:43;;;;;;;4.17;2.30;;;23.50;47.50;24.50;100633.00;;;;5053773;28;20334;-40
2022/07/29 01:44:17;;;;;;;3.30;2.17;;;23.50;47.50;24.50;100625.00;;;;5054028;28;20201;-38
2022/07/29 01:46:50;;;;;;;3.33;2.10;;;23.50;47.50;24.50;100627.00;;;;5054218;28;20174;-40
2022/07/29 01:49:20;;;;;;;3.60;2.43;;;23.40;47.60;24.50;100629.00;;;;5054293;28;20688;-40
2022/07/29 01:51:53;;;;;;;2.70;2.17;;;23.40;47.70;24.50;100552.00;;;;5054772;28;20235;-40
2022/07/29 01:54:37;;;;;;;2.77;1.90;;;23.40;47.90;24.50;100623.00;;;;5055696;28;20173;-39
2022/07/29 01:57:04;;;;;;;3.60;2.40;;;23.40;47.90;24.50;100608.00;;;;5053808;28;20734;-40
2022/07/29 01:59:29;;;;;;;2.93;2.30;;;23.40;47.90;24.40;100609.00;;;;5054014;28;20201;-38
2022/07/29 02:01:57;;;;;;;3.13;2.10;;;23.40;48.00;24.40;100597.00;;;;5055598;28;20188;-38
2022/07/29 02:04:23;;;;;;;2.50;2.27;;;23.40;48.00;24.50;100594.00;;;;5053672;28;20170;-39
2022/07/29 02:06:51;;;;;;;3.03;2.23;;;23.50;48.00;24.50;100610.00;;;;5053518;28;20227;-39
2022/07/29 02:09:16;;;;;;;3.10;2.37;;;23.50;48.00;24.50;100608.00;;;;5053671;28;20215;-39
2022/07/29 02:11:51;;;;;;;2.47;2.20;;;23.50;48.00;24.50;100607.00;;;;5071628;28;20555;-40
2022/07/29 02:14:18;;;;;;;5.07;2.10;;;23.50;48.20;24.50;100608.00;;;;5055669;28;20268;-40
2022/07/29 02:16:44;;;;;;;2.23;2.03;;;23.50;48.30;24.50;100619.00;;;;5054215;28;20651;-38
2022/07/29 02:19:10;;;;;;;3.10;2.40;;;23.40;48.10;24.40;100609.00;;;;5052902;28;20236;-39
2022/07/29 02:21:36;;;;;;;2.60;2.20;;;23.40;48.20;24.40;100620.00;;;;5053132;28;20208;-39
2022/07/29 02:24:02;;;;;;;2.20;2.00;;;23.40;48.30;24.40;100620.00;;;;5070978;28;20181;-40
2022/07/29 02:26:28;;;;;;;3.90;2.30;;;23.40;48.50;24.40;100628.00;;;;5036261;28;20172;-40
2022/07/29 02:28:55;;;;;;;3.00;2.30;;;23.40;48.60;24.40;100621.00;;;;5052918;28;20201;-39
2022/07/29 02:31:30;;;;;;;4.57;2.27;;;23.40;48.60;24.40;100624.00;;;;5070764;28;20188;-41
2022/07/29 02:33:55;;;;;;;5.30;2.40;;;23.40;48.60;24.30;100621.00;;;;5053313;28;20261;-40
2022/07/29 02:36:22;;;;;;;2.20;2.00;;;23.40;48.60;24.30;100628.00;;;;5052740;28;20655;-40
2022/07/29 02:38:51;;;;;;;3.73;2.27;;;23.40;48.80;24.30;100626.00;;;;5052151;28;20205;-39
2022/07/29 02:41:41;;;;;;;3.13;2.30;;;23.40;48.90;24.30;100618.00;;;;5053275;28;20196;-40
2022/07/29 02:44:11;;;;;;;3.50;2.23;;;23.40;48.80;24.30;100626.00;;;;5024167;28;20193;-38
2022/07/29 02:46:41;;;;;;;3.13;2.07;;;23.30;49.40;24.30;100620.00;;;;5052372;28;20169;-41
2022/07/29 02:49:12;;;;;;;4.03;2.30;;;23.30;48.60;24.30;100624.00;;;;5052900;28;20189;-39
2022/07/29 02:51:46;;;;;;;2.70;2.30;;;23.30;48.60;24.20;100632.00;;;;5035671;28;20188;-40
2022/07/29 02:54:46;;;;;;;3.10;2.07;;;23.30;48.50;24.20;100619.00;;;;5053319;28;20161;-40
2022/07/29 02:57:27;;;;;;;2.10;2.00;;;23.30;48.70;24.20;100622.00;;;;5031648;28;20687;-39
2022/07/29 02:59:53;;;;;;;2.43;1.97;;;23.40;48.80;24.20;100625.00;;;;5052903;28;20193;-41
2022/07/29 03:02:19;;;;;;;2.67;2.30;;;23.30;48.50;24.20;100619.00;;;;5052478;28;20166;-39
2022/07/29 03:04:45;;;;;;;2.67;2.10;;;23.30;48.50;24.20;100634.00;;;;5052816;28;20249;-41
2022/07/29 03:07:11;;;;;;;2.73;2.30;;;23.20;48.40;24.20;100648.00;;;;5052423;28;20173;-41
2022/07/29 03:09:37;;;;;;;3.57;2.30;;;23.30;48.50;24.20;100653.00;;;;5035719;28;20201;-40
2022/07/29 03:12:04;;;;;;;3.83;2.40;;;23.30;48.30;24.20;100651.00;;;;5052012;28;20208;-40
2022/07/29 03:14:30;;;;;;;5.03;2.10;;;23.20;48.40;24.20;100657.00;;;;5069939;28;20189;-40
2022/07/29 03:16:55;;;;;;;4.87;2.20;;;23.20;48.40;24.20;100651.00;;;;5051831;28;20257;-39
2022/07/29 03:19:21;;;;;;;3.73;2.30;;;23.20;48.70;24.10;100655.00;;;;5051349;28;20222;-41
2022/07/29 03:21:47;;;;;;;4.13;2.40;;;23.10;48.60;24.10;100661.00;;;;5051961;28;20172;-41
2022/07/29 03:24:33;;;;;;;6.57;2.73;;;23.00;48.70;24.00;100666.00;;;;5051788;28;20186;-40
2022/07/29 03:26:59;;;;;;;3.67;2.17;;;23.00;48.70;24.00;100670.00;;;;5072228;28;20184;-40
2022/07/29 03:29:25;;;;;;;9.13;2.83;;;23.00;48.70;24.00;100677.00;;;;5089718;28;20196;-40
2022/07/29 03:31:51;;;;;;;5.97;2.30;;;23.00;48.80;24.00;100682.00;;;;5071502;28;20630;-40
2022/07/29 03:34:17;;;;;;;6.47;2.37;;;23.00;48.90;24.00;100684.00;;;;5089673;28;20727;-40
2022/07/29 03:36:42;;;;;;;3.13;2.20;;;23.00;48.90;24.00;100683.00;;;;5089624;28;20173;-40
2022/07/29 03:39:08;;;;;;;5.57;2.50;;;23.00;48.80;24.00;100688.00;;;;5089095;28;20283;-40
2022/07/29 03:41:36;;;;;;;3.73;2.37;;;23.00;49.10;24.00;100680.00;;;;5038415;28;20165;-40
2022/07/29 03:44:02;;;;;;;4.27;2.70;;;23.00;49.00;24.00;100683.00;;;;5086605;28;20252;-40
2022/07/29 03:46:28;;;;;;;4.97;3.27;;;23.00;49.00;24.00;100685.00;;;;5090255;28;20208;-40
2022/07/29 03:48:58;;;;;;;3.60;2.70;;;23.00;48.90;24.00;100684.00;;;;5088225;28;20192;-46
2022/07/29 03:51:25;;;;;;;4.23;2.70;;;23.00;49.00;24.00;100683.00;;;;5081561;28;20171;-41
2022/07/29 03:53:51;;;;;;;4.43;2.80;;;23.00;48.90;23.90;100690.00;;;;5087106;28;20181;-40
2022/07/29 03:56:17;;;;;;;2.90;2.40;;;23.00;49.00;23.90;100682.00;;;;5096584;28;20611;-39
2022/07/29 03:58:44;;;;;;;5.30;2.77;;;22.90;48.90;23.90;100674.00;;;;5087207;28;20246;-39
2022/07/29 04:01:09;;;;;;;3.97;2.50;;;22.90;49.00;23.90;100682.00;;;;5089517;28;20264;-40
2022/07/29 04:03:35;;;;;;;4.67;2.63;;;22.90;49.10;23.90;100678.00;;;;5087965;28;20256;-40
2022/07/29 04:06:05;;;;;;;4.73;2.70;;;22.80;48.70;23.80;100679.00;;;;5087849;28;20189;-39
2022/07/29 04:08:31;;;;;;;3.23;2.57;;;22.90;48.80;23.80;100686.00;;;;5087137;28;20708;-40
2022/07/29 04:10:57;;;;;;;3.40;2.70;;;22.90;48.70;23.80;100680.00;;;;5087588;28;20193;-40
2022/07/29 04:13:23;;;;;;;4.33;2.80;;;22.80;48.60;23.80;100681.00;;;;5087248;28;20177;-39
2022/07/29 04:15:49;;;;;;;4.27;2.83;;;22.80;48.50;23.80;100679.00;;;;5087959;28;20183;-39
2022/07/29 04:18:14;;;;;;;4.90;2.70;;;22.80;48.70;23.80;100682.00;;;;5087485;28;20201;-38
2022/07/29 04:20:40;;;;;;;3.43;2.70;;;22.90;48.60;23.80;100689.00;;;;5088621;28;20196;-40
2022/07/29 04:23:06;;;;;;;4.23;2.70;;;22.90;48.50;23.80;100683.00;;;;5088768;28;20701;-39
2022/07/29 04:25:31;;;;;;;3.13;2.43;;;22.90;48.40;23.80;100683.00;;;;5078572;28;20169;-40
2022/07/29 04:28:00;;;;;;;6.60;2.70;;;22.80;48.40;23.80;100682.00;;;;5067749;28;20270;-40
2022/07/29 04:30:26;;;;;;;4.43;2.43;;;22.80;48.30;23.70;100683.00;;;;5068413;28;20629;-39
2022/07/29 04:32:52;;;;;;;4.83;2.60;;;22.80;48.30;23.70;100687.00;;;;5068817;28;20184;-39
2022/07/29 04:35:20;;;;;;;5.30;2.60;;;22.80;48.40;23.70;100678.00;;;;5068886;28;20576;-39
2022/07/29 04:37:46;;;;;;;2.60;2.40;;;22.70;48.30;23.70;100686.00;;;;5068154;28;20193;-40
2022/07/29 04:40:12;;;;;;;4.40;2.90;;;22.70;48.40;23.70;100675.00;;;;5067609;28;20220;-40
2022/07/29 04:42:38;;;;;;;5.60;2.53;;;22.70;48.40;23.60;100677.00;;;;5068343;28;20195;-39
2022/07/29 04:45:05;;;;;;;5.27;2.73;;;22.70;48.40;23.60;100668.00;;;;5050566;28;20204;-41
2022/07/29 04:47:31;;;;;;;5.10;2.77;;;22.60;48.30;23.60;100663.00;;;;5050107;28;20200;-40
2022/07/29 04:49:57;;;;;;;5.73;2.60;;;22.60;48.50;23.60;100664.00;;;;5069096;28;20162;-40
2022/07/29 04:52:23;;;;;;;5.23;2.60;;;22.60;48.30;23.60;100664.00;;;;5073915;28;20193;-40
2022/07/29 04:54:49;;;;;;;3.27;2.47;;;22.60;48.30;23.60;100683.00;;;;5071824;28;20674;-38
2022/07/29 04:57:15;;;;;;;8.63;2.53;;;22.60;48.30;23.60;100683.00;;;;5067169;28;20659;-41
2022/07/29 04:59:40;;;;;;;5.10;2.63;;;22.60;48.30;23.60;100683.00;;;;5067668;28;20303;-39
2022/07/29 05:02:06;;;;;;;6.03;2.70;;;22.60;48.30;23.50;100674.00;;;;5068192;28;20173;-39
2022/07/29 05:04:32;;;;;;;6.10;2.80;;;22.50;48.30;23.50;100675.00;;;;5068747;28;20250;-39
2022/07/29 05:06:58;;;;;;;4.87;2.50;;;22.60;48.60;23.50;100657.00;;;;5068765;28;20169;-39
2022/07/29 05:09:23;;;;;;;7.50;2.70;;;22.50;48.40;23.50;100673.00;;;;5070370;28;20290;-41
2022/07/29 05:11:49;;;;;;;3.87;2.60;;;22.50;48.50;23.50;100667.00;;;;5070918;28;20588;-40
2022/07/29 05:14:15;;;;;;;4.90;2.90;;;22.50;48.60;23.40;100669.00;;;;5073022;28;20178;-39
2022/07/29 05:16:41;;;;;;;3.73;2.60;;;22.50;48.70;23.50;100684.00;;;;5072488;28;20227;-41
2022/07/29 05:19:07;;;;;;;3.23;2.50;;;22.50;48.70;23.40;100683.00;;;;5071262;28;20213;-40
2022/07/29 05:21:33;;;;;;;3.73;2.53;;;22.50;48.70;23.40;100686.00;;;;5072238;28;20806;-39
2022/07/29 05:23:58;;;;;;;4.23;2.43;;;22.50;48.70;23.40;100693.00;;;;5071956;28;20177;-40
2022/07/29 05:26:24;;;;;;;6.60;2.83;;;22.40;48.90;23.40;100691.00;;;;5071773;28;20201;-38
2022/07/29 05:28:50;;;;;;;4.67;2.43;;;22.50;48.90;23.40;100700.00;;;;5071226;28;20269;-40
2022/07/29 05:31:16;;;;;;;4.37;2.67;;;22.50;49.40;23.40;100705.00;;;;5071721;28;20174;-40
2022/07/29 05:33:42;;;;;;;7.00;2.60;;;22.50;48.80;23.40;100696.00;;;;5071826;28;20235;-39
2022/07/29 05:36:07;;;;;;;7.03;2.73;;;22.50;48.80;23.40;100702.00;;;;5074330;28;20181;-40
2022/07/29 05:38:34;;;;;;;6.20;2.53;;;22.60;49.60;23.40;100697.00;;;;5070648;28;20224;-39
2022/07/29 05:41:00;;;;;;;6.07;2.50;;;22.50;48.70;23.40;100693.00;;;;5071773;28;20201;-40
2022/07/29 05:43:28;;;;;;;16.20;3.20;;;22.60;48.70;23.40;100698.00;;;;5070890;28;20174;-38
2022/07/29 05:45:54;;;;;;;5.70;2.50;;;22.60;49.80;23.50;100691.00;;;;5071932;28;20177;-38
2022/07/29 05:48:19;;;;;;;4.03;2.60;;;22.60;49.40;23.50;100698.00;;;;5077371;28;20254;-39
2022/07/29 05:50:45;;;;;;;7.13;2.73;;;22.60;49.30;23.50;100698.00;;;;5059236;28;20169;-38
2022/07/29 05:53:11;;;;;;;6.70;2.90;;;22.50;49.40;23.40;100696.00;;;;5072365;28;20209;-37
2022/07/29 05:55:37;;;;;;;3.37;2.63;;;22.50;50.10;23.40;100705.00;;;;5071492;28;20181;-38
2022/07/29 05:58:02;;;;;;;4.03;2.57;;;22.50;49.50;23.40;100700.00;;;;5070501;28;20185;-38
2022/07/29 06:00:28;;;;;;;4.17;2.67;;;22.50;49.40;23.40;100703.00;;;;5071320;28;20668;-38
2022/07/29 06:02:54;;;;;;;4.20;2.43;;;22.50;49.40;23.40;100713.00;;;;5071348;28;20201;-38
2022/07/29 06:05:19;;;;;;;7.33;2.70;;;22.60;49.40;23.40;100709.00;;;;5071101;28;20174;-39
2022/07/29 06:07:45;;;;;;;6.27;2.60;;;22.60;49.50;23.40;100706.00;;;;5070504;28;20193;-39
2022/07/29 06:10:11;;;;;;;4.20;2.40;;;22.50;49.90;23.30;100726.00;;;;5070450;28;20193;-39
2022/07/29 06:12:37;;;;;;;5.07;2.23;;;22.50;49.30;23.40;100727.00;;;;5070651;28;20182;-38
2022/07/29 06:15:03;;;;;;;4.90;2.40;;;22.50;50.20;23.40;100740.00;;;;5070902;28;20173;-38
2022/07/29 06:17:29;;;;;;;3.43;2.60;;;22.50;50.40;23.30;100735.00;;;;5070591;28;20683;-38
2022/07/29 06:19:55;;;;;;;5.03;2.50;;;22.50;49.80;23.30;100734.00;;;;5069403;28;20252;-39
2022/07/29 06:22:20;;;;;;;3.27;2.30;;;22.50;49.50;23.40;100749.00;;;;5070425;28;20201;-37
2022/07/29 06:24:46;;;;;;;3.70;2.47;;;22.50;49.50;23.40;100742.00;;;;5070828;28;20205;-37
2022/07/29 06:27:12;;;;;;;4.90;2.50;;;22.60;49.70;23.40;100747.00;;;;5070329;28;20261;-39
2022/07/29 06:29:38;;;;;;;4.63;2.63;;;22.60;49.60;23.40;100742.00;;;;5072935;28;20182;-39
2022/07/29 06:32:04;;;;;;;3.83;2.20;;;22.70;49.50;23.40;100751.00;;;;5070475;28;20185;-39
2022/07/29 06:34:29;;;;;;;6.13;2.50;;;22.70;49.40;23.40;100751.00;;;;5070814;28;20181;-39
2022/07/29 06:36:55;;;;;;;5.17;2.50;;;22.70;49.60;23.40;100752.00;;;;5073499;28;20178;-38
2022/07/29 06:39:21;;;;;;;7.00;2.50;;;22.60;49.60;23.40;100757.00;;;;5076240;28;20201;-38
2022/07/29 06:41:49;;;;;;;5.03;2.60;;;22.60;49.40;23.40;100758.00;;;;5070604;28;20177;-37
2022/07/29 06:44:15;;;;;;;3.37;2.43;;;22.60;49.40;23.40;100761.00;;;;5069060;28;20166;-39
2022/07/29 06:46:41;;;;;;;4.47;2.50;;;22.70;49.50;23.40;100765.00;;;;5068419;28;20194;-38
2022/07/29 06:49:07;;;;;;;3.63;2.60;;;22.60;49.50;23.40;100759.00;;;;5068161;28;20233;-38
2022/07/29 06:51:33;;;;;;;3.93;2.37;;;22.50;49.90;23.40;100762.00;;;;5068699;28;20158;-37
2022/07/29 06:54:00;;;;;;;5.80;2.53;;;22.50;49.80;23.40;100758.00;;;;5071262;28;20285;-37
2022/07/29 06:56:26;;;;;;;2.47;2.17;;;22.50;50.30;23.40;100763.00;;;;5069387;28;20177;-38
2022/07/29 06:58:52;;;;;;;6.23;2.63;;;22.50;50.60;23.40;100770.00;;;;5069467;28;20213;-38
2022/07/29 07:01:17;;;;;;;3.87;2.30;;;22.50;50.50;23.40;100779.00;;;;5069858;28;20616;-38
2022/07/29 07:03:43;;;;;;;2.80;2.30;;;22.50;51.20;23.40;100780.00;;;;5069959;28;20197;-37
2022/07/29 07:06:09;;;;;;;3.87;2.50;;;22.60;51.50;23.40;100779.00;;;;5069468;28;20208;-38
2022/07/29 07:08:35;;;;;;;4.00;2.50;;;22.60;51.00;23.40;100777.00;;;;5069666;28;20201;-38
2022/07/29 07:11:01;;;;;;;4.07;2.40;;;22.60;51.50;23.40;100774.00;;;;5055266;28;20204;-38
2022/07/29 07:13:27;;;;;;;5.93;2.50;;;22.60;51.30;23.40;100770.00;;;;5084769;28;20181;-48
2022/07/29 07:15:53;;;;;;;5.10;2.67;;;22.60;51.60;23.40;100768.00;;;;5084103;28;20219;-38
2022/07/29 07:18:19;;;;;;;7.10;2.60;;;22.60;51.60;23.40;100776.00;;;;5069176;28;20194;-39
2022/07/29 07:20:45;;;;;;;7.90;2.80;;;22.60;51.80;23.40;100765.00;;;;5069217;28;20696;-39
2022/07/29 07:23:11;;;;;;;3.93;2.20;;;22.60;51.80;23.40;100775.00;;;;5068938;28;20180;-38
2022/07/29 07:25:36;;;;;;;4.57;2.60;;;22.60;51.20;23.40;100777.00;;;;5087560;28;20193;-38
2022/07/29 07:28:03;;;;;;;3.73;2.53;;;22.60;51.20;23.40;100780.00;;;;5089439;28;20219;-38
2022/07/29 07:30:28;;;;;;;4.87;2.47;;;22.60;51.30;23.40;100778.00;;;;5088877;28;20184;-37
2022/07/29 07:32:55;;;;;;;6.27;2.60;;;22.60;51.60;23.40;100770.00;;;;5089233;28;20544;-37
2022/07/29 07:35:20;;;;;;;4.63;2.63;;;22.60;52.30;23.50;100760.00;;;;5088900;28;20185;-37
2022/07/29 07:37:46;;;;;;;5.43;2.70;;;22.60;51.60;23.50;100750.00;;;;5089919;28;20625;-39
2022/07/29 07:40:12;;;;;;;5.57;2.77;;;22.70;52.00;23.50;100758.00;;;;5089778;28;20681;-39
2022/07/29 07:42:39;;;;;;;5.57;2.43;;;22.70;52.10;23.50;100756.00;;;;5088943;28;20224;-39
2022/07/29 07:45:06;;;;;;;6.17;2.37;;;22.70;52.40;23.50;100756.00;;;;5089061;28;20188;-37
2022/07/29 07:47:32;;;;;;;3.23;2.30;;;22.70;53.10;23.50;100756.00;;;;5089569;28;20188;-40
2022/07/29 07:49:58;;;;;;;10.40;2.80;;;22.70;53.30;23.60;100753.00;;;;5090960;28;20172;-39
2022/07/29 07:52:24;;;;;;;4.93;2.40;;;22.70;54.10;23.60;100759.00;;;;5084993;28;20792;-39
2022/07/29 07:54:50;;;;;;;4.40;2.60;;;22.70;52.40;23.60;100772.00;;;;5083956;28;20583;-39
2022/07/29 07:57:16;;;;;;;4.37;2.60;;;22.70;53.00;23.60;100777.00;;;;5088844;28;20177;-40
2022/07/29 07:59:42;;;;;;;5.57;2.40;;;22.70;53.70;23.60;100775.00;;;;5089344;28;20215;-40
2022/07/29 08:02:08;;;;;;;3.97;2.50;;;22.70;53.60;23.60;100709.00;;;;5089089;28;20777;-39
2022/07/29 08:04:34;;;;;;;3.33;2.50;;;22.70;54.50;23.60;100756.00;;;;5088689;28;20173;-38
2022/07/29 08:07:00;;;;;;;4.27;2.57;;;22.70;55.00;23.60;100760.00;;;;5072358;28;20705;-38
2022/07/29 08:09:26;;;;;;;3.67;2.53;;;22.70;55.30;23.60;100768.00;;;;5068749;28;20205;-38
2022/07/29 08:11:52;;;;;;;3.40;2.50;;;22.80;55.50;23.60;100759.00;;;;5069208;28;20264;-40
2022/07/29 08:14:18;;;;;;;5.70;2.70;;;22.80;55.50;23.70;100749.00;;;;5069170;28;20260;-38
2022/07/29 08:16:45;;;;;;;4.27;2.70;;;22.80;55.80;23.70;100754.00;;;;5069234;28;20198;-40
2022/07/29 08:19:11;;;;;;;6.00;2.60;;;22.80;54.90;23.70;100754.00;;;;5068309;28;20254;-39
2022/07/29 08:21:37;;;;;;;6.67;2.73;;;22.80;54.70;23.70;100761.00;;;;5069198;28;20173;-39
2022/07/29 08:26:48;;;;;;;5.77;2.90;;;22.70;54.30;23.70;100762.00;;;;5018584;28;20201;-38
2022/07/29 08:29:13;;;;;;;6.63;3.00;;;22.70;54.40;23.60;100765.00;;;;5087234;28;20769;-39
2022/07/29 08:31:40;;;;;;;4.47;2.60;;;22.60;55.10;23.50;100760.00;;;;5078597;28;20174;-38
2022/07/29 08:34:05;;;;;;;6.40;2.87;;;22.70;54.60;23.50;100749.00;;;;5050259;28;20177;-39
2022/07/29 08:36:32;;;;;;;6.10;2.90;;;22.60;54.50;23.50;100747.00;;;;5067963;28;20192;-40
2022/07/29 08:38:58;;;;;;;6.70;2.70;;;22.60;54.90;23.50;100754.00;;;;5068157;28;20262;-40
2022/07/29 08:41:24;;;;;;;8.47;2.60;;;22.70;56.10;23.60;100760.00;;;;5068845;28;20702;-41
2022/07/29 08:43:50;;;;;;;8.03;2.73;;;22.70;56.20;23.60;100764.00;;;;5070699;28;20746;-38
2022/07/29 08:46:16;;;;;;;5.90;2.73;;;22.80;56.10;23.60;100752.00;;;;5082184;28;20218;-39
2022/07/29 08:48:42;;;;;;;3.70;2.63;;;22.80;56.00;23.60;100749.00;;;;5080789;28;20719;-39
2022/07/29 08:51:08;;;;;;;2.97;2.40;;;22.80;56.00;23.60;100748.00;;;;5088440;28;20172;-40
2022/07/29 08:53:34;;;;;;;3.77;2.60;;;22.80;56.80;23.60;100743.00;;;;5095143;28;20176;-41
2022/07/29 08:56:00;;;;;;;5.60;2.60;;;22.70;56.00;23.70;100739.00;;;;5080204;28;20169;-38
2022/07/29 08:58:26;;;;;;;6.27;2.60;;;22.80;56.20;23.70;100753.00;;;;5080498;28;20192;-39
2022/07/29 09:00:54;;;;;;;4.03;2.43;;;22.80;56.20;23.70;100742.00;;;;5092724;28;20286;-39
2022/07/29 09:03:22;;;;;;;6.20;2.67;;;22.80;56.20;23.70;100743.00;;;;5092530;28;20196;-41
2022/07/29 09:05:47;;;;;;;4.43;3.00;;;22.80;56.20;23.70;100740.00;;;;5081717;28;20170;-38
2022/07/29 09:08:14;;;;;;;6.47;2.60;;;22.80;56.10;23.70;100739.00;;;;5068262;28;20199;-39
2022/07/29 09:10:40;;;;;;;6.83;2.90;;;22.80;56.00;23.70;100725.00;;;;5090088;28;20197;-39
2022/07/29 09:13:06;;;;;;;3.37;2.77;;;22.80;56.20;23.70;100744.00;;;;5089995;28;20244;-41
2022/07/29 09:15:31;;;;;;;3.87;2.30;;;22.80;56.00;23.70;100734.00;;;;5091251;28;20188;-39
2022/07/29 09:17:58;;;;;;;6.63;2.73;;;22.90;56.10;23.70;100742.00;;;;5092514;28;20224;-41
2022/07/29 09:20:25;;;;;;;3.27;2.50;;;22.90;55.80;23.80;100740.00;;;;5092642;28;20247;-41
2022/07/29 09:22:53;;;;;;;4.33;2.57;;;22.90;55.50;23.80;100738.00;;;;5091525;28;20205;-41
2022/07/29 09:25:35;;;;;;;4.77;2.70;;;22.80;55.40;23.80;100732.00;;;;5080709;28;20198;-40
2022/07/29 09:28:07;;;;;;;4.67;2.60;;;22.90;55.30;23.80;100742.00;;;;5025397;28;20202;-39
2022/07/29 09:30:33;;;;;;;5.60;2.60;;;22.90;55.80;23.80;100732.00;;;;5070902;28;20181;-41
2022/07/29 09:33:01;;;;;;;7.13;2.57;;;22.90;56.20;23.80;100746.00;;;;5083062;28;20192;-40
2022/07/29 09:35:27;;;;;;;8.37;2.63;;;22.90;56.00;23.80;100743.00;;;;5091434;28;20161;-39
2022/07/29 09:37:53;;;;;;;6.53;2.70;;;22.90;56.00;23.80;100747.00;;;;5090963;28;20250;-41
2022/07/29 09:40:23;;;;;;;4.77;2.67;;;22.90;56.10;23.80;100749.00;;;;5091663;28;20197;-41
2022/07/29 09:42:49;;;;;;;4.30;2.30;;;23.00;56.30;23.80;100744.00;;;;5090106;28;20221;-40
2022/07/29 09:45:31;;;;;;;7.03;2.80;;;22.90;56.20;23.90;100742.00;;;;5091323;28;20179;-40
2022/07/29 09:48:02;;;;;;;6.20;2.60;;;23.00;56.20;23.80;100747.00;;;;5076177;28;20209;-41
2022/07/29 09:50:41;;;;;;;4.97;2.60;;;22.90;56.80;23.80;100741.00;;;;5091347;28;20200;-41
2022/07/29 09:53:10;;;;;;;7.03;2.53;;;22.90;55.70;23.80;100743.00;;;;5085571;28;20579;-41
2022/07/29 09:55:48;;;;;;;3.10;2.33;;;22.90;55.70;23.80;100742.00;;;;5083086;28;20532;-39
2022/07/29 09:58:18;;;;;;;6.60;2.73;;;22.90;55.60;23.80;100749.00;;;;5088076;28;20197;-39
2022/07/29 10:00:45;;;;;;;4.80;2.50;;;22.80;55.60;23.80;100744.00;;;;5087407;28;20196;-41
2022/07/29 10:03:11;;;;;;;6.67;2.50;;;22.90;55.60;23.80;100756.00;;;;5072466;28;20181;-39
2022/07/29 10:05:37;;;;;;;9.00;2.50;;;22.90;55.60;23.80;100756.00;;;;5071251;28;20352;-40
2022/07/29 10:08:03;;;;;;;3.73;2.30;;;22.80;55.40;23.80;100740.00;;;;5053186;28;20611;-38
2022/07/29 10:10:37;;;;;;;4.03;2.20;;;22.80;55.80;23.80;100743.00;;;;5069353;28;20199;-41
2022/07/29 10:13:09;;;;;;;3.40;2.63;;;22.90;55.30;23.80;100730.00;;;;5090070;28;20329;-40
2022/07/29 10:15:38;;;;;;;4.57;2.43;;;22.90;55.20;23.80;100729.00;;;;5068370;28;20188;-39
2022/07/29 10:18:04;;;;;;;3.37;2.50;;;22.80;55.10;23.80;100734.00;;;;5080753;28;20202;-42
2022/07/29 10:20:30;;;;;;;3.73;2.50;;;22.90;55.10;23.80;100747.00;;;;5078019;28;20194;-40
2022/07/29 10:22:56;;;;;;;4.00;2.50;;;22.90;55.80;23.80;100751.00;;;;5081843;28;20173;-40
2022/07/29 10:25:22;;;;;;;3.47;2.90;;;22.80;55.10;23.80;100756.00;;;;5090229;28;20177;-41
2022/07/29 10:27:48;;;;;;;3.07;2.60;;;22.90;55.30;23.80;100756.00;;;;4993123;28;20456;-39
2022/07/29 10:30:15;;;;;;;2.70;2.43;;;22.80;55.30;23.80;100753.00;;;;5090386;28;20165;-38
2022/07/29 10:33:08;;;;;;;5.17;2.83;;;22.80;55.40;23.80;100752.00;;;;5090727;28;20177;-40
2022/07/29 10:35:42;;;;;;;5.50;2.70;;;22.80;55.20;23.80;100747.00;;;;5083584;28;20181;-40
2022/07/29 10:38:40;;;;;;;3.80;2.63;;;22.80;55.80;23.80;100750.00;;;;5090365;28;20201;-38
2022/07/29 10:41:46;;;;;;;3.50;2.50;;;22.80;55.70;23.80;100758.00;;;;5064418;28;20702;-39
2022/07/29 10:44:22;;;;;;;3.93;2.77;;;22.80;55.80;23.80;100762.00;;;;5060060;28;20484;-40
2022/07/29 10:46:48;;;;;;;4.87;2.60;;;22.90;56.10;23.80;100759.00;;;;5051979;28;20329;-42
2022/07/29 10:49:26;;;;;;;4.80;2.60;;;22.90;56.10;23.80;100762.00;;;;5051963;28;20200;-41
2022/07/29 10:52:07;;;;;;;4.70;2.80;;;22.90;56.40;23.80;100762.00;;;;5070960;28;20746;-40
2022/07/29 10:54:35;;;;;;;4.47;2.77;;;22.90;56.40;23.80;100756.00;;;;5069993;28;20170;-40